sensor_id;sensor_type;location;lat;lon;timestamp;P1;durP1;ratioP1;P2;durP2;ratioP2
30046;SDS011;16878;52.542;13.426;2022-07-29T00:00:00;12.80;;;5.82;;
30046;SDS011;16878;52.542;13.426;2022-07-29T00:02:28;14.05;;;5.60;;
30046;SDS011;16878;52.542;13.426;2022-07-29T00:04:53;14.20;;;5.60;;
30046;SDS011;16878;52.542;13.426;2022-07-29T00:07:19;11.63;;;5.60;;
30046;SDS011;16878;52.542;13.426;2022-07-29T00:09:45;10.15;;;5.28;;
30046;SDS011;16878;52.542;13.426;2022-07-29T00:12:10;13.90;;;5.85;;
30046;SDS011;16878;52.542;13.426;2022-07-29T00:14:36;8.50;;;5.38;;
30046;SDS011;16878;52.542;13.426;2022-07-29T00:17:02;14.45;;;6.10;;
30046;SDS011;16878;52.542;13.426;2022-07-29T00:19:27;10.38;;;5.22;;
30046;SDS011;16878;52.542;13.426;2022-07-29T00:21:53;10.88;;;6.00;;
30046;SDS011;16878;52.542;13.426;2022-07-29T00:24:18;12.43;;;5.53;;
30046;SDS011;16878;52.542;13.426;2022-07-29T00:26:44;9.43;;;6.13;;
30046;SDS011;16878;52.542;13.426;2022-07-29T00:29:10;13.95;;;6.63;;
30046;SDS011;16878;52.542;13.426;2022-07-29T00:31:36;20.77;;;6.53;;
30046;SDS011;16878;52.542;13.426;2022-07-29T00:34:01;12.90;;;5.57;;
30046;SDS011;16878;52.542;13.426;2022-07-29T00:36:27;11.80;;;5.93;;
30046;SDS011;16878;52.542;13.426;2022-07-29T00:38:53;12.05;;;6.07;;
30046;SDS011;16878;52.542;13.426;2022-07-29T00:41:19;10.75;;;6.35;;
30046;SDS011;16878;52.542;13.426;2022-07-29T00:43:45;18.23;;;6.28;;
30046;SDS011;16878;52.542;13.426;2022-07-29T00:46:11;17.05;;;6.28;;
30046;SDS011;16878;52.542;13.426;2022-07-29T00:48:36;8.40;;;6.47;;
30046;SDS011;16878;52.542;13.426;2022-07-29T00:51:03;11.32;;;6.50;;
30046;SDS011;16878;52.542;13.426;2022-07-29T00:53:30;14.07;;;7.88;;
30046;SDS011;16878;52.542;13.426;2022-07-29T00:55:57;12.65;;;7.72;;
30046;SDS011;16878;52.542;13.426;2022-07-29T00:58:23;15.32;;;6.45;;
30046;SDS011;16878;52.542;13.426;2022-07-29T01:00:51;13.80;;;6.97;;
30046;SDS011;16878;52.542;13.426;2022-07-29T01:03:17;16.63;;;6.40;;
30046;SDS011;16878;52.542;13.426;2022-07-29T01:05:43;11.65;;;6.40;;
30046;SDS011;16878;52.542;13.426;2022-07-29T01:08:11;13.55;;;6.35;;
30046;SDS011;16878;52.542;13.426;2022-07-29T01:10:38;12.95;;;6.32;;
30046;SDS011;16878;52.542;13.426;2022-07-29T01:13:05;16.63;;;5.97;;
30046;SDS011;16878;52.542;13.426;2022-07-29T01:15:32;11.38;;;6.53;;
30046;SDS011;16878;52.542;13.426;2022-07-29T01:18:05;15.50;;;7.05;;
30046;SDS011;16878;52.542;13.426;2022-07-29T01:31:48;19.70;;;5.70;;
30046;SDS011;16878;52.542;13.426;2022-07-29T01:34:21;15.05;;;6.97;;
30046;SDS011;16878;52.542;13.426;2022-07-29T01:36:55;19.48;;;6.03;;
30046;SDS011;16878;52.542;13.426;2022-07-29T01:39:38;12.30;;;6.13;;
30046;SDS011;16878;52.542;13.426;2022-07-29T01:42:23;15.48;;;6.43;;
30046;SDS011;16878;52.542;13.426;2022-07-29T01:45:17;16.25;;;6.22;;
30046;SDS011;16878;52.542;13.426;2022-07-29T01:48:03;14.77;;;6.55;;
30046;SDS011;16878;52.542;13.426;2022-07-29T01:50:48;12.48;;;5.85;;
30046;SDS011;16878;52.542;13.426;2022-07-29T01:53:21;9.43;;;5.65;;
30046;SDS011;16878;52.542;13.426;2022-07-29T01:55:52;13.93;;;6.03;;
30046;SDS011;16878;52.542;13.426;2022-07-29T01:58:21;13.23;;;5.77;;
30046;SDS011;16878;52.542;13.426;2022-07-29T02:00:49;8.23;;;5.00;;
30046;SDS011;16878;52.542;13.426;2022-07-29T02:03:16;11.75;;;5.82;;
30046;SDS011;16878;52.542;13.426;2022-07-29T02:05:43;11.77;;;5.80;;
30046;SDS011;16878;52.542;13.426;2022-07-29T02:08:11;10.15;;;5.57;;
30046;SDS011;16878;52.542;13.426;2022-07-29T02:10:39;12.82;;;6.05;;
30046;SDS011;16878;52.542;13.426;2022-07-29T02:13:07;12.95;;;6.03;;
30046;SDS011;16878;52.542;13.426;2022-07-29T02:15:34;12.52;;;5.60;;
30046;SDS011;16878;52.542;13.426;2022-07-29T02:18:02;17.20;;;6.10;;
30046;SDS011;16878;52.542;13.426;2022-07-29T02:20:31;9.88;;;5.65;;
30046;SDS011;16878;52.542;13.426;2022-07-29T02:22:58;9.25;;;5.68;;
30046;SDS011;16878;52.542;13.426;2022-07-29T02:25:25;14.43;;;5.72;;
30046;SDS011;16878;52.542;13.426;2022-07-29T02:27:52;11.77;;;6.65;;
30046;SDS011;16878;52.542;13.426;2022-07-29T02:30:19;7.82;;;5.50;;
30046;SDS011;16878;52.542;13.426;2022-07-29T02:32:47;13.73;;;5.57;;
30046;SDS011;16878;52.542;13.426;2022-07-29T02:35:14;21.40;;;6.47;;
30046;SDS011;16878;52.542;13.426;2022-07-29T02:37:42;12.80;;;5.63;;
30046;SDS011;16878;52.542;13.426;2022-07-29T02:40:11;14.68;;;6.47;;
30046;SDS011;16878;52.542;13.426;2022-07-29T02:45:07;22.23;;;6.50;;
30046;SDS011;16878;52.542;13.426;2022-07-29T02:47:34;12.65;;;6.10;;
30046;SDS011;16878;52.542;13.426;2022-07-29T02:50:04;12.63;;;6.15;;
30046;SDS011;16878;52.542;13.426;2022-07-29T02:53:20;12.25;;;6.50;;
30046;SDS011;16878;52.542;13.426;2022-07-29T02:55:40;10.45;;;6.47;;
30046;SDS011;16878;52.542;13.426;2022-07-29T02:58:21;24.88;;;6.55;;
30046;SDS011;16878;52.542;13.426;2022-07-29T03:00:53;11.07;;;6.38;;
30046;SDS011;16878;52.542;13.426;2022-07-29T03:03:23;10.52;;;6.05;;
30046;SDS011;16878;52.542;13.426;2022-07-29T03:05:56;12.73;;;5.70;;
30046;SDS011;16878;52.542;13.426;2022-07-29T03:08:23;15.27;;;6.03;;
30046;SDS011;16878;52.542;13.426;2022-07-29T03:10:49;16.15;;;6.32;;
30046;SDS011;16878;52.542;13.426;2022-07-29T03:13:17;12.10;;;6.30;;
30046;SDS011;16878;52.542;13.426;2022-07-29T03:15:44;17.77;;;5.78;;
30046;SDS011;16878;52.542;13.426;2022-07-29T03:18:10;13.00;;;5.88;;
30046;SDS011;16878;52.542;13.426;2022-07-29T03:20:37;12.82;;;5.50;;
30046;SDS011;16878;52.542;13.426;2022-07-29T03:23:03;13.10;;;5.93;;
30046;SDS011;16878;52.542;13.426;2022-07-29T03:25:29;15.52;;;5.55;;
30046;SDS011;16878;52.542;13.426;2022-07-29T03:27:55;15.80;;;5.75;;
30046;SDS011;16878;52.542;13.426;2022-07-29T03:30:21;10.95;;;4.85;;
30046;SDS011;16878;52.542;13.426;2022-07-29T03:32:48;17.13;;;5.82;;
30046;SDS011;16878;52.542;13.426;2022-07-29T03:35:15;14.45;;;5.32;;
30046;SDS011;16878;52.542;13.426;2022-07-29T03:37:44;11.07;;;5.85;;
30046;SDS011;16878;52.542;13.426;2022-07-29T03:40:10;15.63;;;5.45;;
30046;SDS011;16878;52.542;13.426;2022-07-29T03:42:39;12.13;;;5.90;;
30046;SDS011;16878;52.542;13.426;2022-07-29T03:45:08;9.00;;;5.07;;
30046;SDS011;16878;52.542;13.426;2022-07-29T03:47:36;9.43;;;4.30;;
30046;SDS011;16878;52.542;13.426;2022-07-29T03:50:08;12.90;;;4.60;;
30046;SDS011;16878;52.542;13.426;2022-07-29T03:52:36;14.13;;;4.80;;
30046;SDS011;16878;52.542;13.426;2022-07-29T03:55:03;10.32;;;4.65;;
30046;SDS011;16878;52.542;13.426;2022-07-29T03:57:29;9.20;;;4.60;;
30046;SDS011;16878;52.542;13.426;2022-07-29T03:59:56;10.93;;;4.50;;
30046;SDS011;16878;52.542;13.426;2022-07-29T04:02:23;10.82;;;5.22;;
30046;SDS011;16878;52.542;13.426;2022-07-29T04:04:50;8.43;;;4.32;;
30046;SDS011;16878;52.542;13.426;2022-07-29T04:07:17;7.10;;;4.15;;
30046;SDS011;16878;52.542;13.426;2022-07-29T04:09:42;13.07;;;5.70;;
30046;SDS011;16878;52.542;13.426;2022-07-29T04:12:08;10.10;;;4.78;;
30046;SDS011;16878;52.542;13.426;2022-07-29T04:14:34;11.98;;;4.88;;
30046;SDS011;16878;52.542;13.426;2022-07-29T04:17:01;11.27;;;4.38;;
30046;SDS011;16878;52.542;13.426;2022-07-29T04:19:28;14.00;;;4.43;;
30046;SDS011;16878;52.542;13.426;2022-07-29T04:21:54;5.63;;;4.15;;
30046;SDS011;16878;52.542;13.426;2022-07-29T04:24:20;10.77;;;4.70;;
30046;SDS011;16878;52.542;13.426;2022-07-29T04:26:46;9.73;;;4.15;;
30046;SDS011;16878;52.542;13.426;2022-07-29T04:29:12;11.55;;;4.28;;
30046;SDS011;16878;52.542;13.426;2022-07-29T04:31:39;11.45;;;4.35;;
30046;SDS011;16878;52.542;13.426;2022-07-29T04:34:05;10.43;;;6.60;;
30046;SDS011;16878;52.542;13.426;2022-07-29T04:36:31;12.77;;;4.05;;
30046;SDS011;16878;52.542;13.426;2022-07-29T04:38:57;11.15;;;4.45;;
30046;SDS011;16878;52.542;13.426;2022-07-29T04:41:22;11.63;;;4.85;;
30046;SDS011;16878;52.542;13.426;2022-07-29T04:43:48;9.70;;;3.75;;
30046;SDS011;16878;52.542;13.426;2022-07-29T04:46:14;9.70;;;4.05;;
30046;SDS011;16878;52.542;13.426;2022-07-29T04:48:39;8.70;;;4.00;;
30046;SDS011;16878;52.542;13.426;2022-07-29T04:51:05;10.98;;;4.60;;
30046;SDS011;16878;52.542;13.426;2022-07-29T04:53:31;8.93;;;4.20;;
30046;SDS011;16878;52.542;13.426;2022-07-29T04:55:56;9.63;;;4.25;;
30046;SDS011;16878;52.542;13.426;2022-07-29T04:58:22;9.65;;;4.13;;
30046;SDS011;16878;52.542;13.426;2022-07-29T05:00:48;8.50;;;3.85;;
30046;SDS011;16878;52.542;13.426;2022-07-29T05:03:14;7.25;;;3.95;;
30046;SDS011;16878;52.542;13.426;2022-07-29T05:05:40;11.27;;;3.70;;
30046;SDS011;16878;52.542;13.426;2022-07-29T05:08:06;12.98;;;4.55;;
30046;SDS011;16878;52.542;13.426;2022-07-29T05:10:32;8.90;;;4.32;;
30046;SDS011;16878;52.542;13.426;2022-07-29T05:12:58;14.55;;;3.70;;
30046;SDS011;16878;52.542;13.426;2022-07-29T05:15:24;8.52;;;4.32;;
30046;SDS011;16878;52.542;13.426;2022-07-29T05:17:50;11.10;;;4.38;;
30046;SDS011;16878;52.542;13.426;2022-07-29T05:20:15;9.05;;;4.60;;
30046;SDS011;16878;52.542;13.426;2022-07-29T05:22:41;7.97;;;4.10;;
30046;SDS011;16878;52.542;13.426;2022-07-29T05:25:07;8.40;;;4.00;;
30046;SDS011;16878;52.542;13.426;2022-07-29T05:27:34;12.75;;;4.05;;
30046;SDS011;16878;52.542;13.426;2022-07-29T05:30:00;8.48;;;3.85;;
30046;SDS011;16878;52.542;13.426;2022-07-29T05:32:26;10.57;;;4.13;;
30046;SDS011;16878;52.542;13.426;2022-07-29T05:34:51;12.52;;;4.45;;
30046;SDS011;16878;52.542;13.426;2022-07-29T05:37:20;8.75;;;4.00;;
30046;SDS011;16878;52.542;13.426;2022-07-29T05:39:46;13.63;;;3.78;;
30046;SDS011;16878;52.542;13.426;2022-07-29T05:42:12;9.85;;;3.80;;
30046;SDS011;16878;52.542;13.426;2022-07-29T05:44:38;9.10;;;3.80;;
30046;SDS011;16878;52.542;13.426;2022-07-29T05:47:04;10.73;;;4.38;;
30046;SDS011;16878;52.542;13.426;2022-07-29T05:49:31;13.77;;;4.43;;
30046;SDS011;16878;52.542;13.426;2022-07-29T05:51:57;11.27;;;4.07;;
30046;SDS011;16878;52.542;13.426;2022-07-29T05:54:23;10.55;;;4.60;;
30046;SDS011;16878;52.542;13.426;2022-07-29T05:56:49;14.30;;;3.83;;
30046;SDS011;16878;52.542;13.426;2022-07-29T05:59:14;7.47;;;4.28;;
30046;SDS011;16878;52.542;13.426;2022-07-29T06:01:40;13.70;;;4.05;;
30046;SDS011;16878;52.542;13.426;2022-07-29T06:04:06;15.93;;;4.85;;
30046;SDS011;16878;52.542;13.426;2022-07-29T06:06:33;11.25;;;3.92;;
30046;SDS011;16878;52.542;13.426;2022-07-29T06:08:59;13.82;;;4.38;;
30046;SDS011;16878;52.542;13.426;2022-07-29T06:11:25;17.23;;;4.18;;
30046;SDS011;16878;52.542;13.426;2022-07-29T06:13:51;10.13;;;4.03;;
30046;SDS011;16878;52.542;13.426;2022-07-29T06:16:18;15.05;;;4.18;;
30046;SDS011;16878;52.542;13.426;2022-07-29T06:18:43;10.38;;;3.53;;
30046;SDS011;16878;52.542;13.426;2022-07-29T06:21:09;11.25;;;3.60;;
30046;SDS011;16878;52.542;13.426;2022-07-29T06:23:36;10.88;;;3.83;;
30046;SDS011;16878;52.542;13.426;2022-07-29T06:26:02;16.27;;;3.60;;
30046;SDS011;16878;52.542;13.426;2022-07-29T06:28:28;14.30;;;3.80;;
30046;SDS011;16878;52.542;13.426;2022-07-29T06:30:53;6.80;;;3.75;;
30046;SDS011;16878;52.542;13.426;2022-07-29T06:33:19;9.60;;;3.50;;
30046;SDS011;16878;52.542;13.426;2022-07-29T06:35:45;8.80;;;3.50;;
30046;SDS011;16878;52.542;13.426;2022-07-29T06:38:12;11.88;;;3.60;;
30046;SDS011;16878;52.542;13.426;2022-07-29T06:40:44;8.35;;;3.50;;
30046;SDS011;16878;52.542;13.426;2022-07-29T06:43:30;10.03;;;3.63;;
30046;SDS011;16878;52.542;13.426;2022-07-29T06:46:05;7.35;;;4.13;;
30046;SDS011;16878;52.542;13.426;2022-07-29T06:48:33;20.50;;;5.03;;
30046;SDS011;16878;52.542;13.426;2022-07-29T06:50:59;12.65;;;3.95;;
30046;SDS011;16878;52.542;13.426;2022-07-29T06:53:26;15.35;;;3.72;;
30046;SDS011;16878;52.542;13.426;2022-07-29T06:55:51;11.15;;;3.53;;
30046;SDS011;16878;52.542;13.426;2022-07-29T06:58:17;7.63;;;3.53;;
30046;SDS011;16878;52.542;13.426;2022-07-29T07:00:45;9.90;;;3.85;;
30046;SDS011;16878;52.542;13.426;2022-07-29T07:03:14;13.73;;;3.80;;
30046;SDS011;16878;52.542;13.426;2022-07-29T07:05:40;8.20;;;3.70;;
30046;SDS011;16878;52.542;13.426;2022-07-29T07:08:06;12.27;;;3.67;;
30046;SDS011;16878;52.542;13.426;2022-07-29T07:10:32;8.25;;;3.75;;
30046;SDS011;16878;52.542;13.426;2022-07-29T07:12:59;11.57;;;3.67;;
30046;SDS011;16878;52.542;13.426;2022-07-29T07:15:25;8.60;;;3.45;;
30046;SDS011;16878;52.542;13.426;2022-07-29T07:17:53;10.93;;;4.10;;
30046;SDS011;16878;52.542;13.426;2022-07-29T07:20:19;12.25;;;3.22;;
30046;SDS011;16878;52.542;13.426;2022-07-29T07:22:45;16.73;;;4.00;;
30046;SDS011;16878;52.542;13.426;2022-07-29T07:25:11;13.57;;;3.75;;
30046;SDS011;16878;52.542;13.426;2022-07-29T07:27:37;10.38;;;3.92;;
30046;SDS011;16878;52.542;13.426;2022-07-29T07:30:03;11.20;;;3.40;;
30046;SDS011;16878;52.542;13.426;2022-07-29T07:32:33;18.13;;;3.55;;
30046;SDS011;16878;52.542;13.426;2022-07-29T07:34:59;13.35;;;2.97;;
30046;SDS011;16878;52.542;13.426;2022-07-29T07:37:25;21.35;;;3.45;;
30046;SDS011;16878;52.542;13.426;2022-07-29T07:39:51;11.50;;;4.35;;
30046;SDS011;16878;52.542;13.426;2022-07-29T07:42:18;5.75;;;3.05;;
30046;SDS011;16878;52.542;13.426;2022-07-29T07:44:44;10.50;;;3.35;;
30046;SDS011;16878;52.542;13.426;2022-07-29T07:47:10;13.38;;;3.35;;
30046;SDS011;16878;52.542;13.426;2022-07-29T07:49:36;11.57;;;3.50;;
30046;SDS011;16878;52.542;13.426;2022-07-29T07:52:02;18.80;;;4.05;;
30046;SDS011;16878;52.542;13.426;2022-07-29T07:54:28;9.95;;;3.67;;
30046;SDS011;16878;52.542;13.426;2022-07-29T07:56:53;15.35;;;3.53;;
30046;SDS011;16878;52.542;13.426;2022-07-29T07:59:19;8.00;;;3.10;;
30046;SDS011;16878;52.542;13.426;2022-07-29T08:01:45;3.58;;;2.28;;
30046;SDS011;16878;52.542;13.426;2022-07-29T08:04:11;8.25;;;2.55;;
30046;SDS011;16878;52.542;13.426;2022-07-29T08:06:36;4.70;;;2.40;;
30046;SDS011;16878;52.542;13.426;2022-07-29T08:09:05;9.77;;;2.88;;
30046;SDS011;16878;52.542;13.426;2022-07-29T08:11:31;16.02;;;3.50;;
30046;SDS011;16878;52.542;13.426;2022-07-29T08:13:57;9.75;;;3.28;;
30046;SDS011;16878;52.542;13.426;2022-07-29T08:16:22;11.77;;;2.88;;
30046;SDS011;16878;52.542;13.426;2022-07-29T08:18:50;9.68;;;2.80;;
30046;SDS011;16878;52.542;13.426;2022-07-29T08:21:16;8.95;;;2.83;;
30046;SDS011;16878;52.542;13.426;2022-07-29T08:23:45;9.95;;;2.85;;
30046;SDS011;16878;52.542;13.426;2022-07-29T08:26:14;9.75;;;3.03;;
30046;SDS011;16878;52.542;13.426;2022-07-29T08:28:41;6.57;;;2.50;;
30046;SDS011;16878;52.542;13.426;2022-07-29T08:31:10;10.52;;;2.88;;
30046;SDS011;16878;52.542;13.426;2022-07-29T08:33:37;13.90;;;2.90;;
30046;SDS011;16878;52.542;13.426;2022-07-29T08:36:02;17.27;;;3.13;;
30046;SDS011;16878;52.542;13.426;2022-07-29T08:38:28;10.13;;;2.72;;
30046;SDS011;16878;52.542;13.426;2022-07-29T08:40:54;15.30;;;3.08;;
30046;SDS011;16878;52.542;13.426;2022-07-29T08:43:20;5.80;;;2.53;;
30046;SDS011;16878;52.542;13.426;2022-07-29T08:45:47;9.75;;;2.20;;
30046;SDS011;16878;52.542;13.426;2022-07-29T08:50:42;12.82;;;3.03;;
30046;SDS011;16878;52.542;13.426;2022-07-29T08:53:12;6.25;;;2.38;;
30046;SDS011;16878;52.542;13.426;2022-07-29T08:55:40;9.32;;;2.90;;
30046;SDS011;16878;52.542;13.426;2022-07-29T08:58:11;11.25;;;2.63;;
30046;SDS011;16878;52.542;13.426;2022-07-29T09:00:41;13.55;;;2.45;;
30046;SDS011;16878;52.542;13.426;2022-07-29T09:03:08;16.13;;;2.50;;
30046;SDS011;16878;52.542;13.426;2022-07-29T09:08:05;10.60;;;2.75;;
30046;SDS011;16878;52.542;13.426;2022-07-29T09:10:31;9.30;;;4.60;;
30046;SDS011;16878;52.542;13.426;2022-07-29T09:12:57;10.95;;;2.95;;
30046;SDS011;16878;52.542;13.426;2022-07-29T09:15:23;7.65;;;2.60;;
30046;SDS011;16878;52.542;13.426;2022-07-29T09:17:49;6.38;;;2.72;;
30046;SDS011;16878;52.542;13.426;2022-07-29T09:20:16;4.38;;;2.30;;
30046;SDS011;16878;52.542;13.426;2022-07-29T09:22:43;11.60;;;2.88;;
30046;SDS011;16878;52.542;13.426;2022-07-29T09:25:14;7.10;;;2.20;;
30046;SDS011;16878;52.542;13.426;2022-07-29T09:27:40;15.73;;;2.80;;
30046;SDS011;16878;52.542;13.426;2022-07-29T09:30:06;6.22;;;2.70;;
30046;SDS011;16878;52.542;13.426;2022-07-29T09:32:54;8.00;;;2.55;;
30046;SDS011;16878;52.542;13.426;2022-07-29T09:35:22;3.83;;;2.28;;
30046;SDS011;16878;52.542;13.426;2022-07-29T09:37:49;7.35;;;2.50;;
30046;SDS011;16878;52.542;13.426;2022-07-29T09:40:15;6.07;;;2.67;;
30046;SDS011;16878;52.542;13.426;2022-07-29T09:42:43;6.05;;;2.40;;
30046;SDS011;16878;52.542;13.426;2022-07-29T09:45:10;9.00;;;2.20;;
30046;SDS011;16878;52.542;13.426;2022-07-29T09:47:46;9.20;;;2.30;;
30046;SDS011;16878;52.542;13.426;2022-07-29T09:50:14;7.68;;;2.65;;
30046;SDS011;16878;52.542;13.426;2022-07-29T09:52:48;8.98;;;2.30;;
30046;SDS011;16878;52.542;13.426;2022-07-29T09:55:18;7.78;;;2.42;;
30046;SDS011;16878;52.542;13.426;2022-07-29T09:57:45;5.25;;;2.63;;
30046;SDS011;16878;52.542;13.426;2022-07-29T10:00:15;6.75;;;2.42;;
30046;SDS011;16878;52.542;13.426;2022-07-29T10:02:43;8.68;;;2.17;;
30046;SDS011;16878;52.542;13.426;2022-07-29T10:10:18;8.20;;;2.22;;
30046;SDS011;16878;52.542;13.426;2022-07-29T10:12:48;4.20;;;2.00;;
30046;SDS011;16878;52.542;13.426;2022-07-29T10:15:15;8.25;;;2.53;;
30046;SDS011;16878;52.542;13.426;2022-07-29T10:17:42;7.03;;;1.85;;
30046;SDS011;16878;52.542;13.426;2022-07-29T10:20:09;5.55;;;1.98;;
30046;SDS011;16878;52.542;13.426;2022-07-29T10:22:36;7.55;;;2.22;;
30046;SDS011;16878;52.542;13.426;2022-07-29T10:25:02;9.18;;;2.53;;
30046;SDS011;16878;52.542;13.426;2022-07-29T10:27:28;7.03;;;1.88;;
30046;SDS011;16878;52.542;13.426;2022-07-29T10:29:54;6.00;;;2.03;;
30046;SDS011;16878;52.542;13.426;2022-07-29T10:37:57;7.85;;;1.75;;
30046;SDS011;16878;52.542;13.426;2022-07-29T10:40:57;11.48;;;2.03;;
30046;SDS011;16878;52.542;13.426;2022-07-29T10:44:14;8.27;;;2.30;;
30046;SDS011;16878;52.542;13.426;2022-07-29T10:46:43;6.00;;;2.28;;
30046;SDS011;16878;52.542;13.426;2022-07-29T10:49:27;5.95;;;1.88;;
30046;SDS011;16878;52.542;13.426;2022-07-29T10:51:55;6.85;;;2.47;;
30046;SDS011;16878;52.542;13.426;2022-07-29T11:00:08;6.72;;;1.90;;
30046;SDS011;16878;52.542;13.426;2022-07-29T11:05:09;11.13;;;2.00;;
30046;SDS011;16878;52.542;13.426;2022-07-29T11:07:37;4.88;;;2.05;;
30046;SDS011;16878;52.542;13.426;2022-07-29T11:15:11;7.55;;;1.85;;
30046;SDS011;16878;52.542;13.426;2022-07-29T11:31:34;7.70;;;2.45;;
30046;SDS011;16878;52.542;13.426;2022-07-29T11:50:30;6.47;;;2.88;;
30046;SDS011;16878;52.542;13.426;2022-07-29T11:53:01;5.22;;;2.70;;
30046;SDS011;16878;52.542;13.426;2022-07-29T11:55:37;11.93;;;2.50;;
30046;SDS011;16878;52.542;13.426;2022-07-29T11:58:04;9.77;;;2.50;;
30046;SDS011;16878;52.542;13.426;2022-07-29T12:03:04;7.53;;;2.58;;
30046;SDS011;16878;52.542;13.426;2022-07-29T12:08:06;6.90;;;2.60;;
30046;SDS011;16878;52.542;13.426;2022-07-29T12:10:34;3.70;;;2.45;;
30046;SDS011;16878;52.542;13.426;2022-07-29T12:13:00;9.30;;;3.15;;
30046;SDS011;16878;52.542;13.426;2022-07-29T12:15:26;11.82;;;2.67;;
30046;SDS011;16878;52.542;13.426;2022-07-29T12:17:52;9.77;;;2.85;;
30046;SDS011;16878;52.542;13.426;2022-07-29T12:20:21;6.10;;;2.97;;
30046;SDS011;16878;52.542;13.426;2022-07-29T12:22:49;17.95;;;2.85;;
30046;SDS011;16878;52.542;13.426;2022-07-29T12:25:18;8.88;;;2.78;;
30046;SDS011;16878;52.542;13.426;2022-07-29T12:27:44;7.90;;;2.97;;
30046;SDS011;16878;52.542;13.426;2022-07-29T12:30:12;13.60;;;2.95;;
30046;SDS011;16878;52.542;13.426;2022-07-29T12:32:43;5.72;;;2.90;;
30046;SDS011;16878;52.542;13.426;2022-07-29T12:35:15;6.68;;;2.88;;
30046;SDS011;16878;52.542;13.426;2022-07-29T12:37:44;5.82;;;3.25;;
30046;SDS011;16878;52.542;13.426;2022-07-29T12:40:16;8.98;;;2.90;;
30046;SDS011;16878;52.542;13.426;2022-07-29T12:45:32;5.60;;;2.70;;
30046;SDS011;16878;52.542;13.426;2022-07-29T12:47:58;9.23;;;2.92;;
30046;SDS011;16878;52.542;13.426;2022-07-29T12:50:24;10.80;;;2.95;;
30046;SDS011;16878;52.542;13.426;2022-07-29T12:52:50;8.88;;;2.92;;
30046;SDS011;16878;52.542;13.426;2022-07-29T12:55:16;11.70;;;2.80;;
30046;SDS011;16878;52.542;13.426;2022-07-29T12:58:25;6.53;;;2.80;;
30046;SDS011;16878;52.542;13.426;2022-07-29T13:01:03;12.55;;;3.42;;
30046;SDS011;16878;52.542;13.426;2022-07-29T13:03:56;3.47;;;2.92;;
30046;SDS011;16878;52.542;13.426;2022-07-29T13:06:41;11.83;;;3.23;;
30046;SDS011;16878;52.542;13.426;2022-07-29T13:09:12;5.97;;;2.88;;
30046;SDS011;16878;52.542;13.426;2022-07-29T13:11:51;7.25;;;2.85;;
30046;SDS011;16878;52.542;13.426;2022-07-29T13:14:37;6.85;;;3.35;;
30046;SDS011;16878;52.542;13.426;2022-07-29T13:17:06;7.82;;;2.95;;
30046;SDS011;16878;52.542;13.426;2022-07-29T13:22:11;7.13;;;2.85;;
30046;SDS011;16878;52.542;13.426;2022-07-29T13:27:21;10.05;;;3.05;;
30046;SDS011;16878;52.542;13.426;2022-07-29T13:29:51;9.57;;;4.80;;
30046;SDS011;16878;52.542;13.426;2022-07-29T13:32:21;12.20;;;3.08;;
30046;SDS011;16878;52.542;13.426;2022-07-29T13:34:47;9.10;;;3.20;;
30046;SDS011;16878;52.542;13.426;2022-07-29T13:37:13;4.82;;;3.15;;
30046;SDS011;16878;52.542;13.426;2022-07-29T13:39:39;6.80;;;3.22;;
30046;SDS011;16878;52.542;13.426;2022-07-29T13:42:06;6.65;;;2.85;;
30046;SDS011;16878;52.542;13.426;2022-07-29T13:44:33;13.27;;;3.67;;
30046;SDS011;16878;52.542;13.426;2022-07-29T13:46:59;12.25;;;3.53;;
30046;SDS011;16878;52.542;13.426;2022-07-29T13:49:25;7.03;;;2.90;;
30046;SDS011;16878;52.542;13.426;2022-07-29T13:51:51;10.43;;;3.05;;
30046;SDS011;16878;52.542;13.426;2022-07-29T13:54:17;5.63;;;3.00;;
30046;SDS011;16878;52.542;13.426;2022-07-29T13:56:43;8.25;;;2.90;;
30046;SDS011;16878;52.542;13.426;2022-07-29T13:59:09;8.98;;;2.80;;
30046;SDS011;16878;52.542;13.426;2022-07-29T14:01:35;5.20;;;3.22;;
30046;SDS011;16878;52.542;13.426;2022-07-29T14:04:01;7.53;;;3.03;;
30046;SDS011;16878;52.542;13.426;2022-07-29T14:06:27;6.60;;;3.05;;
30046;SDS011;16878;52.542;13.426;2022-07-29T14:08:53;5.75;;;2.70;;
30046;SDS011;16878;52.542;13.426;2022-07-29T14:11:19;8.05;;;2.92;;
30046;SDS011;16878;52.542;13.426;2022-07-29T14:13:44;6.43;;;2.88;;
30046;SDS011;16878;52.542;13.426;2022-07-29T14:16:10;5.45;;;2.72;;
30046;SDS011;16878;52.542;13.426;2022-07-29T14:18:36;10.18;;;2.90;;
30046;SDS011;16878;52.542;13.426;2022-07-29T14:21:01;10.10;;;2.58;;
30046;SDS011;16878;52.542;13.426;2022-07-29T14:23:27;7.18;;;3.00;;
30046;SDS011;16878;52.542;13.426;2022-07-29T14:25:53;6.95;;;2.72;;
30046;SDS011;16878;52.542;13.426;2022-07-29T14:28:19;12.23;;;2.92;;
30046;SDS011;16878;52.542;13.426;2022-07-29T14:30:45;13.73;;;3.60;;
30046;SDS011;16878;52.542;13.426;2022-07-29T14:33:10;11.25;;;3.47;;
30046;SDS011;16878;52.542;13.426;2022-07-29T14:35:36;4.40;;;2.95;;
30046;SDS011;16878;52.542;13.426;2022-07-29T14:38:02;8.50;;;3.35;;
30046;SDS011;16878;52.542;13.426;2022-07-29T14:40:28;8.23;;;3.05;;
30046;SDS011;16878;52.542;13.426;2022-07-29T14:42:54;5.22;;;3.15;;
30046;SDS011;16878;52.542;13.426;2022-07-29T14:45:19;4.53;;;2.85;;
30046;SDS011;16878;52.542;13.426;2022-07-29T14:47:45;10.80;;;3.17;;
30046;SDS011;16878;52.542;13.426;2022-07-29T14:50:10;5.72;;;2.85;;
30046;SDS011;16878;52.542;13.426;2022-07-29T14:52:37;7.72;;;3.22;;
30046;SDS011;16878;52.542;13.426;2022-07-29T14:55:03;8.93;;;3.17;;
30046;SDS011;16878;52.542;13.426;2022-07-29T14:57:29;7.35;;;2.80;;
30046;SDS011;16878;52.542;13.426;2022-07-29T14:59:55;7.07;;;4.93;;
30046;SDS011;16878;52.542;13.426;2022-07-29T15:02:21;11.13;;;3.70;;
30046;SDS011;16878;52.542;13.426;2022-07-29T15:04:46;7.55;;;2.58;;
30046;SDS011;16878;52.542;13.426;2022-07-29T15:07:13;5.80;;;2.75;;
30046;SDS011;16878;52.542;13.426;2022-07-29T15:09:40;6.13;;;2.70;;
30046;SDS011;16878;52.542;13.426;2022-07-29T15:12:06;9.30;;;3.10;;
30046;SDS011;16878;52.542;13.426;2022-07-29T15:14:31;8.40;;;4.05;;
30046;SDS011;16878;52.542;13.426;2022-07-29T15:16:57;5.70;;;3.00;;
30046;SDS011;16878;52.542;13.426;2022-07-29T15:19:23;8.70;;;3.08;;
30046;SDS011;16878;52.542;13.426;2022-07-29T15:21:49;15.50;;;3.75;;
30046;SDS011;16878;52.542;13.426;2022-07-29T15:24:16;14.23;;;3.58;;
30046;SDS011;16878;52.542;13.426;2022-07-29T15:26:42;10.63;;;3.40;;
30046;SDS011;16878;52.542;13.426;2022-07-29T15:29:08;5.25;;;3.00;;
30046;SDS011;16878;52.542;13.426;2022-07-29T15:31:33;8.88;;;2.85;;
30046;SDS011;16878;52.542;13.426;2022-07-29T15:33:59;6.20;;;3.30;;
30046;SDS011;16878;52.542;13.426;2022-07-29T15:36:25;12.02;;;3.40;;
30046;SDS011;16878;52.542;13.426;2022-07-29T15:38:54;8.63;;;3.00;;
30046;SDS011;16878;52.542;13.426;2022-07-29T15:41:20;9.90;;;2.75;;
30046;SDS011;16878;52.542;13.426;2022-07-29T15:43:46;10.13;;;3.03;;
30046;SDS011;16878;52.542;13.426;2022-07-29T15:46:13;15.10;;;3.00;;
30046;SDS011;16878;52.542;13.426;2022-07-29T15:48:58;10.35;;;2.47;;
30046;SDS011;16878;52.542;13.426;2022-07-29T15:51:24;8.18;;;3.05;;
30046;SDS011;16878;52.542;13.426;2022-07-29T15:53:50;6.90;;;2.58;;
30046;SDS011;16878;52.542;13.426;2022-07-29T15:56:16;10.20;;;3.50;;
30046;SDS011;16878;52.542;13.426;2022-07-29T15:58:42;9.18;;;3.10;;